METAR UND TAF INFORMATION
CYHZ 011520Z VRB02KT 15SM BKN013 M01/M02 A2999 RMK CU5 SLP164

 FLUGHAFENKARTE

 RUNWAY INFORMATION
Runway 05 Runway length 10500 ft Runway width 200 ft
Runway elevation 449 ft Runway displaced threshold 0 ft Runway heading 35
Runway 23 Runway length 10500 ft Runway width 200 ft
Runway elevation 443 ft Runway displaced threshold 361 ft Runway heading 215
Runway 14 Runway length 7700 ft Runway width 200 ft
Runway elevation 435 ft Runway displaced threshold 0 ft Runway heading 126
Runway 32 Runway length 7700 ft Runway width 200 ft
Runway elevation 476 ft Runway displaced threshold 0 ft Runway heading 306

 AIRPORT FREQUENCIES
Type A/D Name TRML Frequency 118.7 MHZ
Type ATIS Name ATIS Frequency 121 MHZ
Type CLD Name CLNC DEL Frequency 123.95 MHZ
Type CNTR Name MONCTON CN Frequency 118.7 MHZ
Type GND Name GND Frequency 121.9 MHZ
Type RDO Name RDO Frequency 123.275 MHZ
Type RMP Name APN ADVSY Frequency 122.125 MHZ
Type TWR Name TWR Frequency 118.4 MHZ

 AIRPORT NEAR NAVIGATION AIDS
Type DME Name Halifax Frequency 109100 KHZ
Type VOR-DME Name Halifax Frequency 115100 KHZ
Type NDB Name Split Crow Frequency 364 KHZ
Type NDB Name Bluenose Frequency 385 KHZ